sensor_id;sensor_type;location;lat;lon;timestamp;pressure;altitude;pressure_sealevel;temperature;humidity
56600;BME280;51832;48.152;11.530;2023-05-19T00:03:51;95925.22;;;12.77;70.12
56600;BME280;51832;48.152;11.530;2023-05-19T00:09:04;95913.97;;;12.81;70.87
56600;BME280;51832;48.152;11.530;2023-05-19T00:14:06;95905.78;;;13.13;69.43
56600;BME280;51832;48.152;11.530;2023-05-19T00:19:07;95905.97;;;13.30;69.25
56600;BME280;51832;48.152;11.530;2023-05-19T00:24:09;95898.16;;;13.23;69.88
56600;BME280;51832;48.152;11.530;2023-05-19T00:29:09;95892.63;;;12.83;71.34
56600;BME280;51832;48.152;11.530;2023-05-19T00:34:09;95897.41;;;12.74;71.67
56600;BME280;51832;48.152;11.530;2023-05-19T00:39:10;95891.59;;;12.54;72.50
56600;BME280;51832;48.152;11.530;2023-05-19T00:44:10;95883.94;;;12.64;72.15
56600;BME280;51832;48.152;11.530;2023-05-19T00:49:11;95883.63;;;12.72;72.35
56600;BME280;51832;48.152;11.530;2023-05-19T00:54:11;95881.59;;;12.86;71.87
56600;BME280;51832;48.152;11.530;2023-05-19T00:59:11;95884.19;;;12.74;71.74
56600;BME280;51832;48.152;11.530;2023-05-19T01:04:12;95872.41;;;12.77;72.62
56600;BME280;51832;48.152;11.530;2023-05-19T01:09:16;95868.31;;;12.63;73.50
56600;BME280;51832;48.152;11.530;2023-05-19T01:14:17;95877.41;;;12.67;72.66
56600;BME280;51832;48.152;11.530;2023-05-19T01:30:28;95883.91;;;12.34;74.36
56600;BME280;51832;48.152;11.530;2023-05-19T01:35:29;95876.34;;;12.56;73.90
56600;BME280;51832;48.152;11.530;2023-05-19T01:40:32;95880.53;;;12.45;74.39
56600;BME280;51832;48.152;11.530;2023-05-19T01:45:33;95878.00;;;12.21;74.94
56600;BME280;51832;48.152;11.530;2023-05-19T01:50:33;95874.31;;;12.03;75.75
56600;BME280;51832;48.152;11.530;2023-05-19T01:55:39;95884.13;;;12.33;74.42
56600;BME280;51832;48.152;11.530;2023-05-19T02:05:54;95878.69;;;12.46;74.03
56600;BME280;51832;48.152;11.530;2023-05-19T02:11:21;95869.84;;;12.22;74.71
56600;BME280;51832;48.152;11.530;2023-05-19T02:16:27;95868.50;;;12.01;76.24
56600;BME280;51832;48.152;11.530;2023-05-19T02:21:27;95860.03;;;11.93;75.67
56600;BME280;51832;48.152;11.530;2023-05-19T02:26:28;95856.25;;;11.89;76.28
56600;BME280;51832;48.152;11.530;2023-05-19T02:31:28;95867.00;;;11.62;77.16
56600;BME280;51832;48.152;11.530;2023-05-19T02:36:32;95867.38;;;11.91;76.41
56600;BME280;51832;48.152;11.530;2023-05-19T02:41:34;95851.25;;;12.17;75.27
56600;BME280;51832;48.152;11.530;2023-05-19T02:46:34;95850.47;;;11.98;75.68
56600;BME280;51832;48.152;11.530;2023-05-19T02:51:35;95860.75;;;12.18;75.54
56600;BME280;51832;48.152;11.530;2023-05-19T02:56:35;95845.69;;;12.25;74.95
56600;BME280;51832;48.152;11.530;2023-05-19T03:01:36;95851.97;;;12.06;75.90
56600;BME280;51832;48.152;11.530;2023-05-19T03:06:36;95845.25;;;12.10;75.92
56600;BME280;51832;48.152;11.530;2023-05-19T03:11:38;95839.09;;;11.98;76.34
56600;BME280;51832;48.152;11.530;2023-05-19T03:16:39;95852.94;;;11.75;77.41
56600;BME280;51832;48.152;11.530;2023-05-19T03:21:43;95836.75;;;11.90;76.30
56600;BME280;51832;48.152;11.530;2023-05-19T03:26:43;95843.03;;;11.70;77.73
56600;BME280;51832;48.152;11.530;2023-05-19T03:31:43;95842.69;;;12.03;76.28
56600;BME280;51832;48.152;11.530;2023-05-19T03:36:44;95836.25;;;11.81;77.53
56600;BME280;51832;48.152;11.530;2023-05-19T03:41:44;95838.72;;;11.94;76.89
56600;BME280;51832;48.152;11.530;2023-05-19T03:46:44;95830.38;;;11.79;77.42
56600;BME280;51832;48.152;11.530;2023-05-19T03:51:45;95838.94;;;12.11;76.65
56600;BME280;51832;48.152;11.530;2023-05-19T03:56:46;95838.63;;;12.37;75.58
56600;BME280;51832;48.152;11.530;2023-05-19T04:01:48;95839.38;;;11.71;77.33
56600;BME280;51832;48.152;11.530;2023-05-19T04:06:48;95823.88;;;11.82;77.91
56600;BME280;51832;48.152;11.530;2023-05-19T04:11:49;95831.31;;;11.66;78.93
56600;BME280;51832;48.152;11.530;2023-05-19T04:16:49;95825.63;;;11.88;78.07
56600;BME280;51832;48.152;11.530;2023-05-19T04:21:50;95832.81;;;11.99;77.57
56600;BME280;51832;48.152;11.530;2023-05-19T04:26:51;95834.75;;;12.22;76.90
56600;BME280;51832;48.152;11.530;2023-05-19T04:31:52;95834.75;;;12.03;77.43
56600;BME280;51832;48.152;11.530;2023-05-19T04:36:52;95831.41;;;11.96;78.34
56600;BME280;51832;48.152;11.530;2023-05-19T04:41:54;95838.72;;;11.76;78.95
56600;BME280;51832;48.152;11.530;2023-05-19T04:46:55;95831.72;;;12.36;77.05
56600;BME280;51832;48.152;11.530;2023-05-19T04:51:57;95831.41;;;12.44;76.87
56600;BME280;51832;48.152;11.530;2023-05-19T04:56:57;95831.63;;;12.73;75.75
56600;BME280;51832;48.152;11.530;2023-05-19T05:01:58;95824.22;;;12.52;76.08
56600;BME280;51832;48.152;11.530;2023-05-19T05:06:58;95823.94;;;12.12;77.87
56600;BME280;51832;48.152;11.530;2023-05-19T05:12:00;95823.66;;;12.01;78.03
56600;BME280;51832;48.152;11.530;2023-05-19T05:17:01;95816.91;;;12.35;76.86
56600;BME280;51832;48.152;11.530;2023-05-19T05:22:01;95817.06;;;12.70;76.27
56600;BME280;51832;48.152;11.530;2023-05-19T05:27:02;95813.25;;;13.20;74.27
56600;BME280;51832;48.152;11.530;2023-05-19T05:32:03;95812.22;;;13.56;73.11
56600;BME280;51832;48.152;11.530;2023-05-19T05:37:04;95810.38;;;13.56;73.05
56600;BME280;51832;48.152;11.530;2023-05-19T05:42:05;95816.00;;;13.60;71.60
56600;BME280;51832;48.152;11.530;2023-05-19T05:47:06;95818.53;;;13.31;72.67
56600;BME280;51832;48.152;11.530;2023-05-19T05:52:11;95830.00;;;13.83;72.00
56600;BME280;51832;48.152;11.530;2023-05-19T05:57:12;95827.78;;;14.04;71.23
56600;BME280;51832;48.152;11.530;2023-05-19T06:02:12;95814.66;;;14.37;69.94
56600;BME280;51832;48.152;11.530;2023-05-19T06:07:13;95816.09;;;14.40;69.22
56600;BME280;51832;48.152;11.530;2023-05-19T06:12:13;95806.75;;;14.66;68.31
56600;BME280;51832;48.152;11.530;2023-05-19T06:17:13;95820.72;;;14.78;67.53
56600;BME280;51832;48.152;11.530;2023-05-19T06:22:14;95821.97;;;14.30;68.97
56600;BME280;51832;48.152;11.530;2023-05-19T06:27:15;95818.91;;;14.95;67.03
56600;BME280;51832;48.152;11.530;2023-05-19T06:32:15;95814.50;;;15.34;65.74
56600;BME280;51832;48.152;11.530;2023-05-19T06:37:15;95814.16;;;15.47;64.71
56600;BME280;51832;48.152;11.530;2023-05-19T06:42:19;95814.94;;;16.03;62.73
56600;BME280;51832;48.152;11.530;2023-05-19T06:47:21;95809.75;;;15.91;62.21
56600;BME280;51832;48.152;11.530;2023-05-19T06:52:22;95813.53;;;15.23;64.17
56600;BME280;51832;48.152;11.530;2023-05-19T06:57:22;95823.72;;;15.82;62.32
56600;BME280;51832;48.152;11.530;2023-05-19T07:02:23;95813.72;;;15.89;62.04
56600;BME280;51832;48.152;11.530;2023-05-19T07:07:23;95826.50;;;16.14;61.32
56600;BME280;51832;48.152;11.530;2023-05-19T07:12:24;95815.44;;;15.78;61.83
56600;BME280;51832;48.152;11.530;2023-05-19T07:17:25;95816.34;;;15.34;62.69
56600;BME280;51832;48.152;11.530;2023-05-19T07:22:26;95818.34;;;15.60;61.68
56600;BME280;51832;48.152;11.530;2023-05-19T07:27:26;95811.53;;;15.64;61.79
56600;BME280;51832;48.152;11.530;2023-05-19T07:32:27;95816.88;;;16.08;59.84
56600;BME280;51832;48.152;11.530;2023-05-19T07:37:27;95824.22;;;15.62;61.68
56600;BME280;51832;48.152;11.530;2023-05-19T07:42:28;95812.50;;;15.24;64.07
56600;BME280;51832;48.152;11.530;2023-05-19T07:47:29;95812.03;;;15.27;64.34
56600;BME280;51832;48.152;11.530;2023-05-19T07:52:30;95804.38;;;15.31;63.91
56600;BME280;51832;48.152;11.530;2023-05-19T07:57:30;95809.88;;;15.58;63.33
56600;BME280;51832;48.152;11.530;2023-05-19T08:02:31;95811.50;;;16.24;59.88
56600;BME280;51832;48.152;11.530;2023-05-19T08:07:31;95819.50;;;15.14;64.04
56600;BME280;51832;48.152;11.530;2023-05-19T08:12:32;95815.31;;;15.68;62.39
56600;BME280;51832;48.152;11.530;2023-05-19T08:17:32;95807.94;;;15.03;64.73
56600;BME280;51832;48.152;11.530;2023-05-19T08:22:33;95812.66;;;14.84;65.56
56600;BME280;51832;48.152;11.530;2023-05-19T08:27:33;95818.66;;;14.80;66.96
56600;BME280;51832;48.152;11.530;2023-05-19T08:32:34;95796.41;;;14.24;67.96
56600;BME280;51832;48.152;11.530;2023-05-19T08:37:35;95802.69;;;14.91;66.21
56600;BME280;51832;48.152;11.530;2023-05-19T08:42:37;95802.84;;;14.85;66.41
56600;BME280;51832;48.152;11.530;2023-05-19T08:47:40;95796.81;;;14.73;66.52
56600;BME280;51832;48.152;11.530;2023-05-19T08:52:51;95801.75;;;14.52;66.99
56600;BME280;51832;48.152;11.530;2023-05-19T08:57:52;95804.31;;;14.76;66.29
56600;BME280;51832;48.152;11.530;2023-05-19T09:02:53;95802.84;;;14.85;65.71
56600;BME280;51832;48.152;11.530;2023-05-19T09:07:54;95805.53;;;15.02;65.43
56600;BME280;51832;48.152;11.530;2023-05-19T09:12:54;95799.94;;;14.70;66.08
56600;BME280;51832;48.152;11.530;2023-05-19T09:18:08;95793.41;;;14.32;68.12
56600;BME280;51832;48.152;11.530;2023-05-19T09:23:13;95795.75;;;14.57;66.50
56600;BME280;51832;48.152;11.530;2023-05-19T09:28:22;95793.69;;;14.19;68.01
56600;BME280;51832;48.152;11.530;2023-05-19T09:33:23;95790.81;;;15.27;64.39
56600;BME280;51832;48.152;11.530;2023-05-19T09:38:24;95792.06;;;15.58;63.45
56600;BME280;51832;48.152;11.530;2023-05-19T09:43:30;95792.38;;;15.45;62.73
56600;BME280;51832;48.152;11.530;2023-05-19T09:48:33;95790.50;;;15.79;62.36
56600;BME280;51832;48.152;11.530;2023-05-19T09:53:35;95788.69;;;15.46;62.62
56600;BME280;51832;48.152;11.530;2023-05-19T09:58:36;95792.78;;;15.54;62.50
56600;BME280;51832;48.152;11.530;2023-05-19T10:03:37;95782.81;;;15.61;62.37
56600;BME280;51832;48.152;11.530;2023-05-19T10:08:38;95783.56;;;15.56;62.56
56600;BME280;51832;48.152;11.530;2023-05-19T10:13:39;95778.41;;;15.50;62.54
56600;BME280;51832;48.152;11.530;2023-05-19T10:18:40;95776.59;;;16.38;60.12
56600;BME280;51832;48.152;11.530;2023-05-19T10:23:40;95781.72;;;15.23;63.37
56600;BME280;51832;48.152;11.530;2023-05-19T10:28:41;95794.13;;;15.01;64.35
56600;BME280;51832;48.152;11.530;2023-05-19T10:43:57;95789.25;;;15.65;62.32
56600;BME280;51832;48.152;11.530;2023-05-19T10:49:02;95784.00;;;16.14;60.64
56600;BME280;51832;48.152;11.530;2023-05-19T10:54:07;95773.88;;;15.28;62.84
56600;BME280;51832;48.152;11.530;2023-05-19T10:59:32;95770.97;;;14.97;65.16
56600;BME280;51832;48.152;11.530;2023-05-19T11:04:44;95771.94;;;15.24;64.50
56600;BME280;51832;48.152;11.530;2023-05-19T11:09:50;95773.84;;;16.06;61.08
56600;BME280;51832;48.152;11.530;2023-05-19T11:14:52;95775.66;;;15.45;63.68
56600;BME280;51832;48.152;11.530;2023-05-19T11:19:54;95771.22;;;15.12;64.68
56600;BME280;51832;48.152;11.530;2023-05-19T11:24:55;95770.78;;;15.37;63.64
56600;BME280;51832;48.152;11.530;2023-05-19T11:30:16;95767.19;;;15.43;63.89
56600;BME280;51832;48.152;11.530;2023-05-19T11:35:18;95764.94;;;16.39;61.18
56600;BME280;51832;48.152;11.530;2023-05-19T11:40:20;95764.75;;;16.02;60.86
56600;BME280;51832;48.152;11.530;2023-05-19T11:45:24;95771.41;;;15.60;63.37
56600;BME280;51832;48.152;11.530;2023-05-19T11:50:25;95760.94;;;15.92;62.46
56600;BME280;51832;48.152;11.530;2023-05-19T11:55:26;95775.41;;;16.77;59.87
56600;BME280;51832;48.152;11.530;2023-05-19T12:00:33;95770.94;;;16.07;61.89
56600;BME280;51832;48.152;11.530;2023-05-19T12:05:41;95763.84;;;15.69;62.93
56600;BME280;51832;48.152;11.530;2023-05-19T12:10:42;95781.22;;;16.47;60.85
56600;BME280;51832;48.152;11.530;2023-05-19T12:15:42;95780.13;;;15.78;62.56
56600;BME280;51832;48.152;11.530;2023-05-19T12:20:43;95782.06;;;15.10;64.87
56600;BME280;51832;48.152;11.530;2023-05-19T12:25:44;95776.28;;;15.30;65.29
56600;BME280;51832;48.152;11.530;2023-05-19T12:30:52;95779.66;;;15.25;65.16
56600;BME280;51832;48.152;11.530;2023-05-19T12:35:53;95780.84;;;15.18;65.35
56600;BME280;51832;48.152;11.530;2023-05-19T12:40:57;95776.22;;;15.63;63.95
56600;BME280;51832;48.152;11.530;2023-05-19T12:45:58;95768.09;;;16.14;61.92
56600;BME280;51832;48.152;11.530;2023-05-19T12:51:08;95762.16;;;15.63;63.87
56600;BME280;51832;48.152;11.530;2023-05-19T12:56:10;95769.31;;;15.46;64.49
56600;BME280;51832;48.152;11.530;2023-05-19T13:01:17;95771.56;;;15.92;63.58
56600;BME280;51832;48.152;11.530;2023-05-19T13:06:17;95775.06;;;15.38;65.38
56600;BME280;51832;48.152;11.530;2023-05-19T13:11:18;95760.84;;;16.31;62.11
56600;BME280;51832;48.152;11.530;2023-05-19T13:16:18;95764.75;;;17.09;60.24
56600;BME280;51832;48.152;11.530;2023-05-19T13:21:19;95755.06;;;18.39;56.32
56600;BME280;51832;48.152;11.530;2023-05-19T13:26:19;95743.63;;;17.66;57.47
56600;BME280;51832;48.152;11.530;2023-05-19T13:31:20;95728.75;;;18.63;54.72
56600;BME280;51832;48.152;11.530;2023-05-19T13:36:21;95726.09;;;19.04;54.20
56600;BME280;51832;48.152;11.530;2023-05-19T13:41:22;95725.56;;;19.12;52.98
56600;BME280;51832;48.152;11.530;2023-05-19T13:46:24;95725.31;;;18.93;53.54
56600;BME280;51832;48.152;11.530;2023-05-19T13:51:25;95697.75;;;19.59;52.22
56600;BME280;51832;48.152;11.530;2023-05-19T13:56:25;95712.13;;;20.27;50.13
56600;BME280;51832;48.152;11.530;2023-05-19T14:01:25;95709.97;;;19.75;52.03
56600;BME280;51832;48.152;11.530;2023-05-19T14:06:26;95702.09;;;19.09;52.79
56600;BME280;51832;48.152;11.530;2023-05-19T14:11:27;95691.50;;;19.88;51.84
56600;BME280;51832;48.152;11.530;2023-05-19T14:16:27;95687.97;;;18.93;54.65
56600;BME280;51832;48.152;11.530;2023-05-19T14:21:28;95694.38;;;19.12;54.53
56600;BME280;51832;48.152;11.530;2023-05-19T14:26:28;95694.50;;;19.72;52.91
56600;BME280;51832;48.152;11.530;2023-05-19T14:31:28;95694.22;;;19.73;52.34
56600;BME280;51832;48.152;11.530;2023-05-19T14:36:29;95692.50;;;18.88;55.15
56600;BME280;51832;48.152;11.530;2023-05-19T14:41:30;95694.06;;;18.48;57.32
56600;BME280;51832;48.152;11.530;2023-05-19T14:46:30;95698.13;;;18.71;56.95
56600;BME280;51832;48.152;11.530;2023-05-19T14:51:31;95689.53;;;19.25;55.48
56600;BME280;51832;48.152;11.530;2023-05-19T14:56:31;95692.72;;;19.32;55.24
56600;BME280;51832;48.152;11.530;2023-05-19T15:01:32;95689.75;;;19.48;55.26
56600;BME280;51832;48.152;11.530;2023-05-19T15:06:32;95688.78;;;18.99;56.60
56600;BME280;51832;48.152;11.530;2023-05-19T15:11:32;95683.44;;;19.09;56.43
56600;BME280;51832;48.152;11.530;2023-05-19T15:16:33;95687.97;;;19.08;56.11
56600;BME280;51832;48.152;11.530;2023-05-19T15:21:33;95686.03;;;19.39;56.21
56600;BME280;51832;48.152;11.530;2023-05-19T15:26:34;95678.63;;;19.06;56.93
56600;BME280;51832;48.152;11.530;2023-05-19T15:31:34;95664.97;;;19.33;56.24
56600;BME280;51832;48.152;11.530;2023-05-19T15:36:35;95662.03;;;19.49;55.34
56600;BME280;51832;48.152;11.530;2023-05-19T15:41:35;95657.78;;;19.23;56.58
56600;BME280;51832;48.152;11.530;2023-05-19T15:46:36;95659.63;;;19.53;56.38
56600;BME280;51832;48.152;11.530;2023-05-19T15:51:36;95651.22;;;19.75;55.97
56600;BME280;51832;48.152;11.530;2023-05-19T15:56:37;95648.28;;;20.93;52.28
56600;BME280;51832;48.152;11.530;2023-05-19T16:01:37;95643.94;;;22.17;49.05
56600;BME280;51832;48.152;11.530;2023-05-19T16:06:38;95630.28;;;23.02;46.78
56600;BME280;51832;48.152;11.530;2023-05-19T16:11:38;95636.81;;;22.82;45.73
56600;BME280;51832;48.152;11.530;2023-05-19T16:16:38;95635.56;;;22.23;48.28
56600;BME280;51832;48.152;11.530;2023-05-19T16:21:39;95623.38;;;22.31;48.53
56600;BME280;51832;48.152;11.530;2023-05-19T16:26:39;95608.78;;;21.81;49.96
56600;BME280;51832;48.152;11.530;2023-05-19T16:31:39;95607.84;;;21.72;50.23
56600;BME280;51832;48.152;11.530;2023-05-19T16:36:40;95611.06;;;21.26;51.35
56600;BME280;51832;48.152;11.530;2023-05-19T16:41:40;95615.56;;;21.73;49.54
56600;BME280;51832;48.152;11.530;2023-05-19T16:46:41;95607.41;;;21.64;50.04
56600;BME280;51832;48.152;11.530;2023-05-19T16:51:41;95603.56;;;21.89;49.36
56600;BME280;51832;48.152;11.530;2023-05-19T16:56:42;95597.38;;;21.04;51.88
56600;BME280;51832;48.152;11.530;2023-05-19T17:01:42;95586.53;;;21.19;50.96
56600;BME280;51832;48.152;11.530;2023-05-19T17:06:43;95590.13;;;20.12;54.57
56600;BME280;51832;48.152;11.530;2023-05-19T17:11:45;95589.81;;;19.80;55.76
56600;BME280;51832;48.152;11.530;2023-05-19T17:16:45;95586.91;;;20.10;55.48
56600;BME280;51832;48.152;11.530;2023-05-19T17:21:46;95590.53;;;19.36;57.80
56600;BME280;51832;48.152;11.530;2023-05-19T17:26:46;95591.28;;;19.52;57.79
56600;BME280;51832;48.152;11.530;2023-05-19T17:31:47;95594.09;;;19.71;58.03
56600;BME280;51832;48.152;11.530;2023-05-19T17:36:47;95594.44;;;19.59;57.95
56600;BME280;51832;48.152;11.530;2023-05-19T17:41:48;95590.56;;;19.21;59.58
56600;BME280;51832;48.152;11.530;2023-05-19T17:46:49;95585.94;;;19.42;59.13
56600;BME280;51832;48.152;11.530;2023-05-19T17:51:50;95583.25;;;19.57;58.55
56600;BME280;51832;48.152;11.530;2023-05-19T17:56:51;95586.59;;;19.13;59.94
56600;BME280;51832;48.152;11.530;2023-05-19T18:01:52;95582.09;;;19.09;60.37
56600;BME280;51832;48.152;11.530;2023-05-19T18:06:53;95582.53;;;19.31;59.96
56600;BME280;51832;48.152;11.530;2023-05-19T18:11:55;95579.31;;;19.29;59.83
56600;BME280;51832;48.152;11.530;2023-05-19T18:16:56;95580.00;;;18.96;61.38
56600;BME280;51832;48.152;11.530;2023-05-19T18:21:56;95588.34;;;19.43;60.05
56600;BME280;51832;48.152;11.530;2023-05-19T18:26:57;95583.41;;;19.11;61.14
56600;BME280;51832;48.152;11.530;2023-05-19T18:31:57;95584.59;;;19.44;59.94
56600;BME280;51832;48.152;11.530;2023-05-19T18:36:57;95581.97;;;19.34;60.49
56600;BME280;51832;48.152;11.530;2023-05-19T18:41:58;95574.50;;;19.36;60.63
56600;BME280;51832;48.152;11.530;2023-05-19T18:46:58;95569.28;;;19.11;61.69
56600;BME280;51832;48.152;11.530;2023-05-19T18:51:59;95582.84;;;19.14;61.55
56600;BME280;51832;48.152;11.530;2023-05-19T18:56:59;95587.94;;;19.11;62.45
56600;BME280;51832;48.152;11.530;2023-05-19T19:02:01;95588.44;;;19.23;62.09
56600;BME280;51832;48.152;11.530;2023-05-19T19:07:02;95587.00;;;19.46;61.16
56600;BME280;51832;48.152;11.530;2023-05-19T19:12:02;95583.00;;;19.43;61.51
56600;BME280;51832;48.152;11.530;2023-05-19T19:17:03;95588.41;;;19.28;62.30
56600;BME280;51832;48.152;11.530;2023-05-19T19:22:03;95587.38;;;19.24;62.63
56600;BME280;51832;48.152;11.530;2023-05-19T19:27:04;95594.25;;;19.35;62.24
56600;BME280;51832;48.152;11.530;2023-05-19T19:32:04;95604.53;;;18.98;63.87
56600;BME280;51832;48.152;11.530;2023-05-19T19:37:05;95592.03;;;18.83;64.97
56600;BME280;51832;48.152;11.530;2023-05-19T19:42:05;95597.03;;;19.10;64.23
56600;BME280;51832;48.152;11.530;2023-05-19T19:47:06;95596.97;;;19.25;64.05
56600;BME280;51832;48.152;11.530;2023-05-19T19:52:06;95593.72;;;19.38;63.22
56600;BME280;51832;48.152;11.530;2023-05-19T19:57:07;95608.91;;;19.53;63.16
56600;BME280;51832;48.152;11.530;2023-05-19T20:02:07;95592.72;;;19.24;63.33
56600;BME280;51832;48.152;11.530;2023-05-19T20:07:08;95591.94;;;19.08;64.53
56600;BME280;51832;48.152;11.530;2023-05-19T20:12:08;95587.16;;;19.00;65.12
56600;BME280;51832;48.152;11.530;2023-05-19T20:17:09;95579.25;;;18.70;66.62
56600;BME280;51832;48.152;11.530;2023-05-19T20:22:09;95584.81;;;18.78;66.50
56600;BME280;51832;48.152;11.530;2023-05-19T20:27:10;95581.84;;;18.95;65.09
56600;BME280;51832;48.152;11.530;2023-05-19T20:32:11;95573.34;;;18.78;66.19
56600;BME280;51832;48.152;11.530;2023-05-19T20:37:11;95572.56;;;18.72;66.76
56600;BME280;51832;48.152;11.530;2023-05-19T20:42:12;95566.19;;;18.53;67.56
56600;BME280;51832;48.152;11.530;2023-05-19T20:47:13;95559.78;;;18.69;66.89
56600;BME280;51832;48.152;11.530;2023-05-19T20:52:17;95562.47;;;18.44;68.04
56600;BME280;51832;48.152;11.530;2023-05-19T20:57:17;95566.44;;;18.31;68.92
56600;BME280;51832;48.152;11.530;2023-05-19T21:02:18;95561.94;;;18.42;68.63
56600;BME280;51832;48.152;11.530;2023-05-19T21:07:18;95564.06;;;18.15;70.11
56600;BME280;51832;48.152;11.530;2023-05-19T21:12:19;95561.94;;;18.27;69.63
56600;BME280;51832;48.152;11.530;2023-05-19T21:17:24;95557.13;;;18.14;70.31
56600;BME280;51832;48.152;11.530;2023-05-19T21:22:25;95552.06;;;18.07;70.64
56600;BME280;51832;48.152;11.530;2023-05-19T21:27:25;95555.00;;;18.36;70.00
56600;BME280;51832;48.152;11.530;2023-05-19T21:32:26;95562.97;;;18.36;69.78
56600;BME280;51832;48.152;11.530;2023-05-19T21:37:28;95560.03;;;18.32;69.94
56600;BME280;51832;48.152;11.530;2023-05-19T21:42:29;95553.41;;;18.15;70.56
56600;BME280;51832;48.152;11.530;2023-05-19T21:47:29;95550.19;;;17.82;71.51
56600;BME280;51832;48.152;11.530;2023-05-19T21:52:29;95558.72;;;17.89;71.65
56600;BME280;51832;48.152;11.530;2023-05-19T21:57:30;95555.47;;;17.67;71.81
56600;BME280;51832;48.152;11.530;2023-05-19T22:02:30;95558.09;;;17.57;71.79
56600;BME280;51832;48.152;11.530;2023-05-19T22:07:31;95541.06;;;17.48;72.25
56600;BME280;51832;48.152;11.530;2023-05-19T22:12:31;95538.88;;;17.39;72.62
56600;BME280;51832;48.152;11.530;2023-05-19T22:17:32;95531.19;;;17.43;72.58
56600;BME280;51832;48.152;11.530;2023-05-19T22:22:33;95534.88;;;17.37;72.76
56600;BME280;51832;48.152;11.530;2023-05-19T22:27:33;95529.97;;;16.93;73.83
56600;BME280;51832;48.152;11.530;2023-05-19T22:32:34;95519.19;;;17.30;72.42
56600;BME280;51832;48.152;11.530;2023-05-19T22:37:35;95519.72;;;17.32;72.30
56600;BME280;51832;48.152;11.530;2023-05-19T22:42:35;95526.03;;;17.06;73.49
56600;BME280;51832;48.152;11.530;2023-05-19T22:47:36;95523.44;;;17.31;72.26
56600;BME280;51832;48.152;11.530;2023-05-19T22:52:36;95526.09;;;17.36;72.43
56600;BME280;51832;48.152;11.530;2023-05-19T22:57:37;95529.84;;;17.30;72.90
56600;BME280;51832;48.152;11.530;2023-05-19T23:02:37;95536.00;;;17.56;71.72
56600;BME280;51832;48.152;11.530;2023-05-19T23:07:38;95531.72;;;17.35;72.56
56600;BME280;51832;48.152;11.530;2023-05-19T23:12:38;95535.94;;;17.31;72.82
56600;BME280;51832;48.152;11.530;2023-05-19T23:17:39;95530.28;;;17.12;73.85
56600;BME280;51832;48.152;11.530;2023-05-19T23:22:39;95525.22;;;17.05;74.33
56600;BME280;51832;48.152;11.530;2023-05-19T23:27:40;95501.59;;;17.14;73.91
56600;BME280;51832;48.152;11.530;2023-05-19T23:32:40;95506.97;;;17.29;73.32
56600;BME280;51832;48.152;11.530;2023-05-19T23:37:41;95498.16;;;17.19;73.04
56600;BME280;51832;48.152;11.530;2023-05-19T23:42:41;95497.03;;;17.10;73.93
56600;BME280;51832;48.152;11.530;2023-05-19T23:47:43;95495.94;;;16.95;74.38
56600;BME280;51832;48.152;11.530;2023-05-19T23:52:43;95484.56;;;16.53;76.05
56600;BME280;51832;48.152;11.530;2023-05-19T23:57:44;95475.81;;;16.52;75.37
